sensor_id;sensor_type;location;lat;lon;timestamp;temperature;humidity
13446;DHT22;6795;51.232;3.764;2023-02-23T00:02:01;8.30;99.90
13446;DHT22;6795;51.232;3.764;2023-02-23T00:04:33;8.30;99.90
13446;DHT22;6795;51.232;3.764;2023-02-23T00:07:04;8.30;99.90
13446;DHT22;6795;51.232;3.764;2023-02-23T00:09:33;8.30;99.90
13446;DHT22;6795;51.232;3.764;2023-02-23T00:12:04;8.30;99.90
13446;DHT22;6795;51.232;3.764;2023-02-23T00:14:36;8.30;99.90
13446;DHT22;6795;51.232;3.764;2023-02-23T00:17:05;8.30;99.90
13446;DHT22;6795;51.232;3.764;2023-02-23T00:19:40;8.40;99.90
13446;DHT22;6795;51.232;3.764;2023-02-23T00:22:11;8.30;99.90
13446;DHT22;6795;51.232;3.764;2023-02-23T00:24:40;8.30;99.90
13446;DHT22;6795;51.232;3.764;2023-02-23T00:27:09;8.30;99.90
13446;DHT22;6795;51.232;3.764;2023-02-23T00:29:44;8.30;99.90
13446;DHT22;6795;51.232;3.764;2023-02-23T00:32:15;8.30;99.90
13446;DHT22;6795;51.232;3.764;2023-02-23T00:34:46;8.30;99.90
13446;DHT22;6795;51.232;3.764;2023-02-23T00:37:17;8.30;99.90
13446;DHT22;6795;51.232;3.764;2023-02-23T00:39:46;8.30;99.90
13446;DHT22;6795;51.232;3.764;2023-02-23T00:42:14;8.40;99.90
13446;DHT22;6795;51.232;3.764;2023-02-23T00:44:43;8.40;99.90
13446;DHT22;6795;51.232;3.764;2023-02-23T00:47:13;8.40;99.90
13446;DHT22;6795;51.232;3.764;2023-02-23T00:49:42;8.40;99.90
13446;DHT22;6795;51.232;3.764;2023-02-23T00:52:11;8.40;99.90
13446;DHT22;6795;51.232;3.764;2023-02-23T00:54:42;8.40;99.90
13446;DHT22;6795;51.232;3.764;2023-02-23T00:57:11;8.40;99.90
13446;DHT22;6795;51.232;3.764;2023-02-23T00:59:40;8.40;99.90
13446;DHT22;6795;51.232;3.764;2023-02-23T01:02:08;8.40;99.90
13446;DHT22;6795;51.232;3.764;2023-02-23T01:04:36;8.40;99.90
13446;DHT22;6795;51.232;3.764;2023-02-23T01:07:05;8.40;99.90
13446;DHT22;6795;51.232;3.764;2023-02-23T01:09:34;8.50;99.90
13446;DHT22;6795;51.232;3.764;2023-02-23T01:12:04;8.50;99.90
13446;DHT22;6795;51.232;3.764;2023-02-23T01:14:33;8.50;99.90
13446;DHT22;6795;51.232;3.764;2023-02-23T01:17:03;8.50;99.90
13446;DHT22;6795;51.232;3.764;2023-02-23T01:19:32;8.50;99.90
13446;DHT22;6795;51.232;3.764;2023-02-23T01:22:00;8.50;99.90
13446;DHT22;6795;51.232;3.764;2023-02-23T01:24:29;8.50;99.90
13446;DHT22;6795;51.232;3.764;2023-02-23T01:26:57;8.40;99.90
13446;DHT22;6795;51.232;3.764;2023-02-23T01:29:28;8.50;99.90
13446;DHT22;6795;51.232;3.764;2023-02-23T01:31:56;8.40;99.90
13446;DHT22;6795;51.232;3.764;2023-02-23T01:34:25;8.40;99.90
13446;DHT22;6795;51.232;3.764;2023-02-23T01:36:54;8.40;99.90
13446;DHT22;6795;51.232;3.764;2023-02-23T01:39:23;8.40;99.90
13446;DHT22;6795;51.232;3.764;2023-02-23T01:41:51;8.50;99.90
13446;DHT22;6795;51.232;3.764;2023-02-23T01:47:27;8.40;99.90
13446;DHT22;6795;51.232;3.764;2023-02-23T01:49:56;8.40;99.90
13446;DHT22;6795;51.232;3.764;2023-02-23T01:52:24;8.40;99.90
13446;DHT22;6795;51.232;3.764;2023-02-23T01:54:54;8.40;99.90
13446;DHT22;6795;51.232;3.764;2023-02-23T01:57:23;8.40;99.90
13446;DHT22;6795;51.232;3.764;2023-02-23T01:59:53;8.40;99.90
13446;DHT22;6795;51.232;3.764;2023-02-23T02:02:23;8.40;99.90
13446;DHT22;6795;51.232;3.764;2023-02-23T02:05:02;8.40;99.90
13446;DHT22;6795;51.232;3.764;2023-02-23T10:57:18;8.30;99.90
13446;DHT22;6795;51.232;3.764;2023-02-23T11:02:32;10.60;99.90
13446;DHT22;6795;51.232;3.764;2023-02-23T11:05:05;10.70;99.90
13446;DHT22;6795;51.232;3.764;2023-02-23T11:07:33;10.60;99.90
13446;DHT22;6795;51.232;3.764;2023-02-23T11:10:22;10.60;99.90
13446;DHT22;6795;51.232;3.764;2023-02-23T11:12:53;10.60;99.90
13446;DHT22;6795;51.232;3.764;2023-02-23T11:15:27;10.50;99.90
13446;DHT22;6795;51.232;3.764;2023-02-23T11:18:18;10.60;99.90
13446;DHT22;6795;51.232;3.764;2023-02-23T11:20:48;10.70;99.90
13446;DHT22;6795;51.232;3.764;2023-02-23T11:23:22;10.80;99.90
13446;DHT22;6795;51.232;3.764;2023-02-23T11:25:54;10.90;99.90
13446;DHT22;6795;51.232;3.764;2023-02-23T11:28:30;10.90;99.90
13446;DHT22;6795;51.232;3.764;2023-02-23T11:31:02;10.80;99.90
13446;DHT22;6795;51.232;3.764;2023-02-23T11:33:33;11.00;99.90
13446;DHT22;6795;51.232;3.764;2023-02-23T11:36:16;11.00;99.90
13446;DHT22;6795;51.232;3.764;2023-02-23T11:38:45;11.00;99.90
13446;DHT22;6795;51.232;3.764;2023-02-23T11:41:20;11.10;99.90
13446;DHT22;6795;51.232;3.764;2023-02-23T11:43:55;11.20;99.90
13446;DHT22;6795;51.232;3.764;2023-02-23T11:46:25;11.20;99.90
13446;DHT22;6795;51.232;3.764;2023-02-23T11:48:57;11.00;99.90
13446;DHT22;6795;51.232;3.764;2023-02-23T11:51:30;10.80;99.90
13446;DHT22;6795;51.232;3.764;2023-02-23T11:53:59;10.70;99.90
13446;DHT22;6795;51.232;3.764;2023-02-23T11:56:32;10.80;99.90
13446;DHT22;6795;51.232;3.764;2023-02-23T11:59:05;10.90;99.90
13446;DHT22;6795;51.232;3.764;2023-02-23T12:01:38;11.00;99.90
13446;DHT22;6795;51.232;3.764;2023-02-23T12:04:24;10.90;99.90
13446;DHT22;6795;51.232;3.764;2023-02-23T12:07:21;10.90;99.90
13446;DHT22;6795;51.232;3.764;2023-02-23T12:09:58;10.80;99.90
13446;DHT22;6795;51.232;3.764;2023-02-23T12:12:30;10.90;99.90
13446;DHT22;6795;51.232;3.764;2023-02-23T12:15:05;11.10;99.90
13446;DHT22;6795;51.232;3.764;2023-02-23T12:17:41;11.00;99.90
13446;DHT22;6795;51.232;3.764;2023-02-23T12:20:16;11.00;99.90
13446;DHT22;6795;51.232;3.764;2023-02-23T12:22:52;11.00;99.90
13446;DHT22;6795;51.232;3.764;2023-02-23T12:25:24;10.70;99.90
13446;DHT22;6795;51.232;3.764;2023-02-23T12:28:00;10.80;99.90
13446;DHT22;6795;51.232;3.764;2023-02-23T12:30:50;11.30;99.90
13446;DHT22;6795;51.232;3.764;2023-02-23T12:33:25;11.80;99.90
13446;DHT22;6795;51.232;3.764;2023-02-23T12:36:04;12.00;99.90
13446;DHT22;6795;51.232;3.764;2023-02-23T12:38:43;11.90;99.90
13446;DHT22;6795;51.232;3.764;2023-02-23T12:41:19;11.80;99.90
13446;DHT22;6795;51.232;3.764;2023-02-23T12:43:54;11.90;99.90
13446;DHT22;6795;51.232;3.764;2023-02-23T12:46:27;11.80;99.90
13446;DHT22;6795;51.232;3.764;2023-02-23T12:49:03;11.30;99.90
13446;DHT22;6795;51.232;3.764;2023-02-23T12:51:37;11.00;99.90
13446;DHT22;6795;51.232;3.764;2023-02-23T12:54:08;11.20;99.90
13446;DHT22;6795;51.232;3.764;2023-02-23T12:56:49;11.70;99.90
13446;DHT22;6795;51.232;3.764;2023-02-23T12:59:42;12.00;99.90
13446;DHT22;6795;51.232;3.764;2023-02-23T13:02:20;11.90;99.90
13446;DHT22;6795;51.232;3.764;2023-02-23T13:05:04;11.70;99.90
13446;DHT22;6795;51.232;3.764;2023-02-23T13:07:40;11.40;99.90
13446;DHT22;6795;51.232;3.764;2023-02-23T13:10:19;11.40;99.90
13446;DHT22;6795;51.232;3.764;2023-02-23T13:12:59;11.20;99.90
13446;DHT22;6795;51.232;3.764;2023-02-23T13:15:44;11.10;99.90
13446;DHT22;6795;51.232;3.764;2023-02-23T13:18:22;11.20;99.90
13446;DHT22;6795;51.232;3.764;2023-02-23T13:20:55;11.40;99.90
13446;DHT22;6795;51.232;3.764;2023-02-23T13:23:33;11.40;99.90
13446;DHT22;6795;51.232;3.764;2023-02-23T13:26:11;11.10;99.90
13446;DHT22;6795;51.232;3.764;2023-02-23T13:28:50;11.00;99.90
13446;DHT22;6795;51.232;3.764;2023-02-23T13:31:25;11.00;99.90
13446;DHT22;6795;51.232;3.764;2023-02-23T13:33:57;11.00;99.90
13446;DHT22;6795;51.232;3.764;2023-02-23T13:36:28;11.10;99.90
13446;DHT22;6795;51.232;3.764;2023-02-23T13:39:21;11.20;99.90
13446;DHT22;6795;51.232;3.764;2023-02-23T13:42:02;11.10;99.90
13446;DHT22;6795;51.232;3.764;2023-02-23T13:44:40;11.20;99.90
13446;DHT22;6795;51.232;3.764;2023-02-23T13:47:17;11.30;99.90
13446;DHT22;6795;51.232;3.764;2023-02-23T13:49:56;11.50;99.90
13446;DHT22;6795;51.232;3.764;2023-02-23T13:52:30;11.90;99.90
13446;DHT22;6795;51.232;3.764;2023-02-23T13:55:00;11.90;99.90
13446;DHT22;6795;51.232;3.764;2023-02-23T13:57:31;11.90;99.90
13446;DHT22;6795;51.232;3.764;2023-02-23T14:00:02;12.20;99.90
13446;DHT22;6795;51.232;3.764;2023-02-23T14:02:36;12.40;99.90
13446;DHT22;6795;51.232;3.764;2023-02-23T14:05:16;12.30;99.90
13446;DHT22;6795;51.232;3.764;2023-02-23T14:07:50;12.00;99.90
13446;DHT22;6795;51.232;3.764;2023-02-23T14:10:21;11.90;99.90
13446;DHT22;6795;51.232;3.764;2023-02-23T14:13:06;11.70;99.90
13446;DHT22;6795;51.232;3.764;2023-02-23T14:15:43;11.50;99.90
13446;DHT22;6795;51.232;3.764;2023-02-23T14:18:29;11.40;99.90
13446;DHT22;6795;51.232;3.764;2023-02-23T14:21:09;11.50;99.90
13446;DHT22;6795;51.232;3.764;2023-02-23T14:23:51;11.70;99.90
13446;DHT22;6795;51.232;3.764;2023-02-23T14:26:40;11.80;99.90
13446;DHT22;6795;51.232;3.764;2023-02-23T14:29:21;11.90;99.90
13446;DHT22;6795;51.232;3.764;2023-02-23T14:31:56;11.80;99.90
13446;DHT22;6795;51.232;3.764;2023-02-23T14:34:43;11.50;99.90
13446;DHT22;6795;51.232;3.764;2023-02-23T14:37:24;11.20;99.90
13446;DHT22;6795;51.232;3.764;2023-02-23T14:39:55;11.00;99.90
13446;DHT22;6795;51.232;3.764;2023-02-23T14:42:26;10.90;99.90
13446;DHT22;6795;51.232;3.764;2023-02-23T14:45:02;11.00;99.90
13446;DHT22;6795;51.232;3.764;2023-02-23T14:47:41;11.00;99.90
13446;DHT22;6795;51.232;3.764;2023-02-23T14:50:18;11.00;99.90
13446;DHT22;6795;51.232;3.764;2023-02-23T14:52:53;11.10;99.90
13446;DHT22;6795;51.232;3.764;2023-02-23T14:55:24;11.10;99.90
13446;DHT22;6795;51.232;3.764;2023-02-23T14:57:55;11.20;99.90
13446;DHT22;6795;51.232;3.764;2023-02-23T15:00:26;11.40;99.90
13446;DHT22;6795;51.232;3.764;2023-02-23T15:03:01;11.40;99.90
13446;DHT22;6795;51.232;3.764;2023-02-23T15:05:32;11.50;99.90
13446;DHT22;6795;51.232;3.764;2023-02-23T15:08:05;11.50;99.90
13446;DHT22;6795;51.232;3.764;2023-02-23T15:10:38;11.40;99.90
13446;DHT22;6795;51.232;3.764;2023-02-23T15:13:10;11.30;99.90
13446;DHT22;6795;51.232;3.764;2023-02-23T15:15:40;11.20;99.90
13446;DHT22;6795;51.232;3.764;2023-02-23T15:18:20;11.10;99.90
13446;DHT22;6795;51.232;3.764;2023-02-23T15:20:50;11.20;99.90
13446;DHT22;6795;51.232;3.764;2023-02-23T15:23:20;11.10;99.90
13446;DHT22;6795;51.232;3.764;2023-02-23T15:25:48;11.10;99.90
13446;DHT22;6795;51.232;3.764;2023-02-23T15:28:23;11.10;99.90
13446;DHT22;6795;51.232;3.764;2023-02-23T15:30:53;11.00;99.90
13446;DHT22;6795;51.232;3.764;2023-02-23T15:33:22;11.00;99.90
13446;DHT22;6795;51.232;3.764;2023-02-23T15:36:01;11.10;99.90
13446;DHT22;6795;51.232;3.764;2023-02-23T15:38:37;11.00;99.90
13446;DHT22;6795;51.232;3.764;2023-02-23T15:41:16;10.90;99.90
13446;DHT22;6795;51.232;3.764;2023-02-23T15:43:49;10.80;99.90
13446;DHT22;6795;51.232;3.764;2023-02-23T15:46:21;10.70;99.90
13446;DHT22;6795;51.232;3.764;2023-02-23T15:48:53;10.50;99.90
13446;DHT22;6795;51.232;3.764;2023-02-23T15:51:30;10.50;99.90
13446;DHT22;6795;51.232;3.764;2023-02-23T15:54:05;10.60;99.90
13446;DHT22;6795;51.232;3.764;2023-02-23T15:56:39;10.60;99.90
13446;DHT22;6795;51.232;3.764;2023-02-23T15:59:19;10.50;99.90
13446;DHT22;6795;51.232;3.764;2023-02-23T16:01:52;10.40;99.90
13446;DHT22;6795;51.232;3.764;2023-02-23T16:04:26;10.40;99.90
13446;DHT22;6795;51.232;3.764;2023-02-23T16:07:15;10.40;99.90
13446;DHT22;6795;51.232;3.764;2023-02-23T16:09:50;10.30;99.90
13446;DHT22;6795;51.232;3.764;2023-02-23T16:12:23;10.30;99.90
13446;DHT22;6795;51.232;3.764;2023-02-23T16:14:56;10.20;99.90
13446;DHT22;6795;51.232;3.764;2023-02-23T16:17:28;10.10;99.90
13446;DHT22;6795;51.232;3.764;2023-02-23T16:20:06;10.10;99.90
13446;DHT22;6795;51.232;3.764;2023-02-23T16:22:41;10.10;99.90
13446;DHT22;6795;51.232;3.764;2023-02-23T16:25:14;10.10;99.90
13446;DHT22;6795;51.232;3.764;2023-02-23T16:27:45;10.00;99.90
13446;DHT22;6795;51.232;3.764;2023-02-23T16:30:20;10.00;99.90
13446;DHT22;6795;51.232;3.764;2023-02-23T16:33:04;9.90;99.90
13446;DHT22;6795;51.232;3.764;2023-02-23T16:35:36;9.80;99.90
13446;DHT22;6795;51.232;3.764;2023-02-23T16:38:11;9.80;99.90
13446;DHT22;6795;51.232;3.764;2023-02-23T16:40:41;9.70;99.90
13446;DHT22;6795;51.232;3.764;2023-02-23T16:43:11;9.70;99.90
13446;DHT22;6795;51.232;3.764;2023-02-23T16:45:41;9.60;99.90
13446;DHT22;6795;51.232;3.764;2023-02-23T16:48:12;9.60;99.90
13446;DHT22;6795;51.232;3.764;2023-02-23T16:50:41;9.50;99.90
13446;DHT22;6795;51.232;3.764;2023-02-23T16:53:12;9.50;99.90
13446;DHT22;6795;51.232;3.764;2023-02-23T16:55:48;9.50;99.90
13446;DHT22;6795;51.232;3.764;2023-02-23T16:58:19;9.40;99.90
13446;DHT22;6795;51.232;3.764;2023-02-23T17:00:49;9.40;99.90
13446;DHT22;6795;51.232;3.764;2023-02-23T17:03:21;9.30;99.90
13446;DHT22;6795;51.232;3.764;2023-02-23T17:05:50;9.30;99.90
13446;DHT22;6795;51.232;3.764;2023-02-23T17:08:18;9.20;99.90
13446;DHT22;6795;51.232;3.764;2023-02-23T17:10:51;9.20;99.90
13446;DHT22;6795;51.232;3.764;2023-02-23T17:13:23;9.10;99.90
13446;DHT22;6795;51.232;3.764;2023-02-23T17:15:53;9.10;99.90
13446;DHT22;6795;51.232;3.764;2023-02-23T17:18:24;9.10;99.90
13446;DHT22;6795;51.232;3.764;2023-02-23T17:20:54;9.00;99.90
13446;DHT22;6795;51.232;3.764;2023-02-23T17:23:24;9.00;99.90
13446;DHT22;6795;51.232;3.764;2023-02-23T17:25:55;8.90;99.90
13446;DHT22;6795;51.232;3.764;2023-02-23T17:28:24;8.90;99.90
13446;DHT22;6795;51.232;3.764;2023-02-23T17:30:53;8.90;99.90
13446;DHT22;6795;51.232;3.764;2023-02-23T17:33:21;8.80;99.90
13446;DHT22;6795;51.232;3.764;2023-02-23T17:35:51;8.80;99.90
13446;DHT22;6795;51.232;3.764;2023-02-23T17:38:19;8.80;99.90
13446;DHT22;6795;51.232;3.764;2023-02-23T17:40:49;8.80;99.90
13446;DHT22;6795;51.232;3.764;2023-02-23T17:43:19;8.80;99.90
13446;DHT22;6795;51.232;3.764;2023-02-23T17:45:51;8.80;99.90
13446;DHT22;6795;51.232;3.764;2023-02-23T17:48:20;8.80;99.90
13446;DHT22;6795;51.232;3.764;2023-02-23T17:50:55;8.80;99.90
13446;DHT22;6795;51.232;3.764;2023-02-23T17:53:25;8.80;99.90
13446;DHT22;6795;51.232;3.764;2023-02-23T17:55:54;8.80;99.90
13446;DHT22;6795;51.232;3.764;2023-02-23T17:58:24;8.70;99.90
13446;DHT22;6795;51.232;3.764;2023-02-23T18:00:54;8.60;99.90
13446;DHT22;6795;51.232;3.764;2023-02-23T18:03:24;8.50;99.90
13446;DHT22;6795;51.232;3.764;2023-02-23T18:05:58;8.40;99.90
13446;DHT22;6795;51.232;3.764;2023-02-23T18:08:27;8.30;99.90
13446;DHT22;6795;51.232;3.764;2023-02-23T18:10:56;8.30;99.90
13446;DHT22;6795;51.232;3.764;2023-02-23T18:13:27;8.30;99.90
13446;DHT22;6795;51.232;3.764;2023-02-23T18:15:58;8.30;99.90
13446;DHT22;6795;51.232;3.764;2023-02-23T18:18:28;8.30;99.90
13446;DHT22;6795;51.232;3.764;2023-02-23T18:20:58;8.30;99.90
13446;DHT22;6795;51.232;3.764;2023-02-23T18:23:30;8.30;99.90
13446;DHT22;6795;51.232;3.764;2023-02-23T18:26:04;8.30;99.90
13446;DHT22;6795;51.232;3.764;2023-02-23T18:28:35;8.20;99.90
13446;DHT22;6795;51.232;3.764;2023-02-23T18:31:05;8.20;99.90
13446;DHT22;6795;51.232;3.764;2023-02-23T18:33:33;8.20;99.90
13446;DHT22;6795;51.232;3.764;2023-02-23T18:36:14;8.10;99.90
13446;DHT22;6795;51.232;3.764;2023-02-23T18:38:43;8.10;99.90
13446;DHT22;6795;51.232;3.764;2023-02-23T18:41:13;8.10;99.90
13446;DHT22;6795;51.232;3.764;2023-02-23T18:43:43;8.10;99.90
13446;DHT22;6795;51.232;3.764;2023-02-23T18:46:12;8.10;99.90
13446;DHT22;6795;51.232;3.764;2023-02-23T18:48:42;8.10;99.90
13446;DHT22;6795;51.232;3.764;2023-02-23T18:51:10;8.00;99.90
13446;DHT22;6795;51.232;3.764;2023-02-23T18:53:41;8.00;99.90
13446;DHT22;6795;51.232;3.764;2023-02-23T18:56:12;8.00;99.90
13446;DHT22;6795;51.232;3.764;2023-02-23T18:58:43;8.00;99.90
13446;DHT22;6795;51.232;3.764;2023-02-23T19:01:12;7.90;99.90
13446;DHT22;6795;51.232;3.764;2023-02-23T19:03:44;7.90;99.90
13446;DHT22;6795;51.232;3.764;2023-02-23T19:06:14;7.90;99.90
13446;DHT22;6795;51.232;3.764;2023-02-23T19:08:43;7.80;99.90
13446;DHT22;6795;51.232;3.764;2023-02-23T19:11:12;7.80;99.90
13446;DHT22;6795;51.232;3.764;2023-02-23T19:13:42;7.70;99.90
13446;DHT22;6795;51.232;3.764;2023-02-23T19:16:11;7.70;99.90
13446;DHT22;6795;51.232;3.764;2023-02-23T19:18:41;7.70;99.90
13446;DHT22;6795;51.232;3.764;2023-02-23T19:21:09;7.60;99.90
13446;DHT22;6795;51.232;3.764;2023-02-23T19:23:38;7.60;99.90
13446;DHT22;6795;51.232;3.764;2023-02-23T19:26:07;7.60;99.90
13446;DHT22;6795;51.232;3.764;2023-02-23T19:28:36;7.60;99.90
13446;DHT22;6795;51.232;3.764;2023-02-23T19:31:08;7.50;99.90
13446;DHT22;6795;51.232;3.764;2023-02-23T19:33:38;7.50;99.90
13446;DHT22;6795;51.232;3.764;2023-02-23T19:36:09;7.50;99.90
13446;DHT22;6795;51.232;3.764;2023-02-23T19:38:38;7.50;99.90
13446;DHT22;6795;51.232;3.764;2023-02-23T19:41:11;7.50;99.90
13446;DHT22;6795;51.232;3.764;2023-02-23T19:43:40;7.50;99.90
13446;DHT22;6795;51.232;3.764;2023-02-23T19:46:12;7.50;99.90
13446;DHT22;6795;51.232;3.764;2023-02-23T19:48:41;7.40;99.90
13446;DHT22;6795;51.232;3.764;2023-02-23T19:51:12;7.40;99.90
13446;DHT22;6795;51.232;3.764;2023-02-23T19:53:41;7.50;99.90
13446;DHT22;6795;51.232;3.764;2023-02-23T19:56:11;7.50;99.90
13446;DHT22;6795;51.232;3.764;2023-02-23T19:58:40;7.50;99.90
13446;DHT22;6795;51.232;3.764;2023-02-23T20:01:15;7.50;99.90
13446;DHT22;6795;51.232;3.764;2023-02-23T20:03:46;7.40;99.90
13446;DHT22;6795;51.232;3.764;2023-02-23T20:06:18;7.40;99.90
13446;DHT22;6795;51.232;3.764;2023-02-23T20:08:46;7.40;99.90
13446;DHT22;6795;51.232;3.764;2023-02-23T20:11:16;7.40;99.90
13446;DHT22;6795;51.232;3.764;2023-02-23T20:13:45;7.40;99.90
13446;DHT22;6795;51.232;3.764;2023-02-23T20:16:18;7.40;99.90
13446;DHT22;6795;51.232;3.764;2023-02-23T20:18:46;7.30;99.90
13446;DHT22;6795;51.232;3.764;2023-02-23T20:21:16;7.30;99.90
13446;DHT22;6795;51.232;3.764;2023-02-23T20:23:46;7.20;99.90
13446;DHT22;6795;51.232;3.764;2023-02-23T20:26:17;7.10;99.90
13446;DHT22;6795;51.232;3.764;2023-02-23T20:28:46;7.00;99.90
13446;DHT22;6795;51.232;3.764;2023-02-23T20:31:19;6.90;99.90
13446;DHT22;6795;51.232;3.764;2023-02-23T20:33:49;6.90;99.90
13446;DHT22;6795;51.232;3.764;2023-02-23T20:36:19;6.90;99.90
13446;DHT22;6795;51.232;3.764;2023-02-23T20:38:48;7.00;99.90
13446;DHT22;6795;51.232;3.764;2023-02-23T20:41:17;7.10;99.90
13446;DHT22;6795;51.232;3.764;2023-02-23T20:43:46;7.10;99.90
13446;DHT22;6795;51.232;3.764;2023-02-23T20:46:16;7.10;99.90
13446;DHT22;6795;51.232;3.764;2023-02-23T20:48:47;7.20;99.90
13446;DHT22;6795;51.232;3.764;2023-02-23T20:51:16;7.20;99.90
13446;DHT22;6795;51.232;3.764;2023-02-23T20:53:46;7.20;99.90
13446;DHT22;6795;51.232;3.764;2023-02-23T20:56:17;7.20;99.90
13446;DHT22;6795;51.232;3.764;2023-02-23T20:58:49;7.20;99.90
13446;DHT22;6795;51.232;3.764;2023-02-23T21:01:20;7.20;99.90
13446;DHT22;6795;51.232;3.764;2023-02-23T21:03:54;7.10;99.90
13446;DHT22;6795;51.232;3.764;2023-02-23T21:06:24;7.10;99.90
13446;DHT22;6795;51.232;3.764;2023-02-23T21:08:53;7.10;99.90
13446;DHT22;6795;51.232;3.764;2023-02-23T21:11:30;7.10;99.90
13446;DHT22;6795;51.232;3.764;2023-02-23T21:13:59;7.10;99.90
13446;DHT22;6795;51.232;3.764;2023-02-23T21:16:28;7.10;99.90
13446;DHT22;6795;51.232;3.764;2023-02-23T21:18:59;7.00;99.90
13446;DHT22;6795;51.232;3.764;2023-02-23T21:21:32;7.10;99.90
13446;DHT22;6795;51.232;3.764;2023-02-23T21:24:05;7.00;99.90
13446;DHT22;6795;51.232;3.764;2023-02-23T21:26:34;7.00;99.90
13446;DHT22;6795;51.232;3.764;2023-02-23T21:29:03;6.90;99.90
13446;DHT22;6795;51.232;3.764;2023-02-23T21:31:36;7.00;99.90
13446;DHT22;6795;51.232;3.764;2023-02-23T21:34:08;6.90;99.90
13446;DHT22;6795;51.232;3.764;2023-02-23T21:36:37;6.90;99.90
13446;DHT22;6795;51.232;3.764;2023-02-23T21:39:07;6.90;99.90
13446;DHT22;6795;51.232;3.764;2023-02-23T21:41:35;6.90;99.90
13446;DHT22;6795;51.232;3.764;2023-02-23T21:44:05;6.90;99.90
13446;DHT22;6795;51.232;3.764;2023-02-23T21:46:35;6.80;99.90
13446;DHT22;6795;51.232;3.764;2023-02-23T21:49:04;6.70;99.90
13446;DHT22;6795;51.232;3.764;2023-02-23T21:51:37;6.60;99.90
13446;DHT22;6795;51.232;3.764;2023-02-23T21:54:06;6.60;99.90
13446;DHT22;6795;51.232;3.764;2023-02-23T21:56:35;6.50;99.90
13446;DHT22;6795;51.232;3.764;2023-02-23T21:59:05;6.40;99.90
13446;DHT22;6795;51.232;3.764;2023-02-23T22:01:36;6.40;99.90
13446;DHT22;6795;51.232;3.764;2023-02-23T22:04:06;6.50;99.90
13446;DHT22;6795;51.232;3.764;2023-02-23T22:06:39;6.50;99.90
13446;DHT22;6795;51.232;3.764;2023-02-23T22:09:09;6.50;99.90
13446;DHT22;6795;51.232;3.764;2023-02-23T22:11:41;6.50;99.90
13446;DHT22;6795;51.232;3.764;2023-02-23T22:14:10;6.50;99.90
13446;DHT22;6795;51.232;3.764;2023-02-23T22:16:39;6.40;99.90
13446;DHT22;6795;51.232;3.764;2023-02-23T22:19:09;6.30;99.90
13446;DHT22;6795;51.232;3.764;2023-02-23T22:21:40;6.30;99.90
13446;DHT22;6795;51.232;3.764;2023-02-23T22:24:10;6.30;99.90
13446;DHT22;6795;51.232;3.764;2023-02-23T22:26:41;6.40;99.90
13446;DHT22;6795;51.232;3.764;2023-02-23T22:29:12;6.40;99.90
13446;DHT22;6795;51.232;3.764;2023-02-23T22:31:41;6.40;99.90
13446;DHT22;6795;51.232;3.764;2023-02-23T22:34:10;6.40;99.90
13446;DHT22;6795;51.232;3.764;2023-02-23T22:36:40;6.40;99.90
13446;DHT22;6795;51.232;3.764;2023-02-23T22:39:08;6.40;99.90
13446;DHT22;6795;51.232;3.764;2023-02-23T22:41:45;6.40;99.90
13446;DHT22;6795;51.232;3.764;2023-02-23T22:44:16;6.50;99.90
13446;DHT22;6795;51.232;3.764;2023-02-23T22:46:45;6.50;99.90
13446;DHT22;6795;51.232;3.764;2023-02-23T22:49:15;6.60;99.90
13446;DHT22;6795;51.232;3.764;2023-02-23T22:51:47;6.60;99.90
13446;DHT22;6795;51.232;3.764;2023-02-23T22:54:17;6.60;99.90
13446;DHT22;6795;51.232;3.764;2023-02-23T22:56:46;6.50;99.90
13446;DHT22;6795;51.232;3.764;2023-02-23T22:59:15;6.60;99.90
13446;DHT22;6795;51.232;3.764;2023-02-23T23:01:46;6.50;99.90
13446;DHT22;6795;51.232;3.764;2023-02-23T23:04:16;6.50;99.90
13446;DHT22;6795;51.232;3.764;2023-02-23T23:06:49;6.50;99.90
13446;DHT22;6795;51.232;3.764;2023-02-23T23:09:18;6.40;99.90
13446;DHT22;6795;51.232;3.764;2023-02-23T23:11:47;6.30;99.90
13446;DHT22;6795;51.232;3.764;2023-02-23T23:14:17;6.30;99.90
13446;DHT22;6795;51.232;3.764;2023-02-23T23:16:46;6.20;99.90
13446;DHT22;6795;51.232;3.764;2023-02-23T23:19:17;6.10;99.90
13446;DHT22;6795;51.232;3.764;2023-02-23T23:21:52;6.10;99.90
13446;DHT22;6795;51.232;3.764;2023-02-23T23:24:23;6.00;99.90
13446;DHT22;6795;51.232;3.764;2023-02-23T23:26:52;5.90;99.90
13446;DHT22;6795;51.232;3.764;2023-02-23T23:29:26;5.70;99.90
13446;DHT22;6795;51.232;3.764;2023-02-23T23:31:55;5.60;99.90
13446;DHT22;6795;51.232;3.764;2023-02-23T23:34:24;5.60;99.90
13446;DHT22;6795;51.232;3.764;2023-02-23T23:36:54;5.60;99.90
13446;DHT22;6795;51.232;3.764;2023-02-23T23:39:23;5.70;99.90
13446;DHT22;6795;51.232;3.764;2023-02-23T23:41:52;5.80;99.90
13446;DHT22;6795;51.232;3.764;2023-02-23T23:44:23;5.90;99.90
13446;DHT22;6795;51.232;3.764;2023-02-23T23:46:55;6.00;99.90
13446;DHT22;6795;51.232;3.764;2023-02-23T23:49:24;6.00;99.90
13446;DHT22;6795;51.232;3.764;2023-02-23T23:51:55;6.10;99.90
13446;DHT22;6795;51.232;3.764;2023-02-23T23:54:26;6.10;99.90
13446;DHT22;6795;51.232;3.764;2023-02-23T23:56:55;6.20;99.90
13446;DHT22;6795;51.232;3.764;2023-02-23T23:59:24;6.20;99.90
